sensor_id;sensor_type;location;lat;lon;timestamp;pressure;altitude;pressure_sealevel;temperature;humidity
75998;BME280;64685;48.762;44.822;2023-02-28T00:04:06;101592.31;;;8.38;65.50
75998;BME280;64685;48.762;44.822;2023-02-28T00:09:11;101564.59;;;8.23;65.46
75998;BME280;64685;48.762;44.822;2023-02-28T00:14:13;101581.81;;;8.15;66.07
75998;BME280;64685;48.762;44.822;2023-02-28T00:19:16;101609.75;;;7.95;66.53
75998;BME280;64685;48.762;44.822;2023-02-28T00:24:18;101615.03;;;7.96;66.08
75998;BME280;64685;48.762;44.822;2023-02-28T00:29:21;101584.00;;;7.69;66.40
75998;BME280;64685;48.762;44.822;2023-02-28T00:34:23;101585.13;;;7.53;66.95
75998;BME280;64685;48.762;44.822;2023-02-28T00:39:27;101579.84;;;7.62;66.22
75998;BME280;64685;48.762;44.822;2023-02-28T00:44:30;101570.66;;;7.61;66.10
75998;BME280;64685;48.762;44.822;2023-02-28T00:49:33;101582.34;;;7.53;66.31
75998;BME280;64685;48.762;44.822;2023-02-28T00:54:36;101596.81;;;7.50;66.51
75998;BME280;64685;48.762;44.822;2023-02-28T00:59:39;101588.25;;;7.22;66.43
75998;BME280;64685;48.762;44.822;2023-02-28T01:04:41;101590.75;;;6.88;66.55
75998;BME280;64685;48.762;44.822;2023-02-28T01:09:44;101611.03;;;6.64;67.50
75998;BME280;64685;48.762;44.822;2023-02-28T01:14:46;101599.09;;;6.68;67.40
75998;BME280;64685;48.762;44.822;2023-02-28T01:19:49;101601.00;;;6.58;67.83
75998;BME280;64685;48.762;44.822;2023-02-28T01:24:51;101615.97;;;6.52;68.18
75998;BME280;64685;48.762;44.822;2023-02-28T01:29:53;101630.38;;;6.39;67.79
75998;BME280;64685;48.762;44.822;2023-02-28T01:34:56;101635.09;;;6.33;69.15
75998;BME280;64685;48.762;44.822;2023-02-28T01:39:58;101648.91;;;6.18;69.33
75998;BME280;64685;48.762;44.822;2023-02-28T01:45:07;101650.59;;;6.24;69.26
75998;BME280;64685;48.762;44.822;2023-02-28T01:50:26;101648.34;;;6.16;70.21
75998;BME280;64685;48.762;44.822;2023-02-28T01:55:30;101647.22;;;6.12;70.13
75998;BME280;64685;48.762;44.822;2023-02-28T02:00:34;101636.66;;;6.09;70.58
75998;BME280;64685;48.762;44.822;2023-02-28T02:05:39;101653.59;;;6.18;70.82
75998;BME280;64685;48.762;44.822;2023-02-28T02:10:57;101648.28;;;6.01;70.96
75998;BME280;64685;48.762;44.822;2023-02-28T02:16:04;101672.03;;;5.87;70.87
75998;BME280;64685;48.762;44.822;2023-02-28T02:42:46;101667.75;;;5.70;71.51
75998;BME280;64685;48.762;44.822;2023-02-28T02:47:51;101676.84;;;5.60;71.68
75998;BME280;64685;48.762;44.822;2023-02-28T02:52:57;101676.16;;;5.48;71.91
75998;BME280;64685;48.762;44.822;2023-02-28T02:58:05;101692.78;;;5.43;72.14
75998;BME280;64685;48.762;44.822;2023-02-28T03:03:11;101707.19;;;5.45;71.57
75998;BME280;64685;48.762;44.822;2023-02-28T03:08:15;101709.75;;;5.57;72.02
75998;BME280;64685;48.762;44.822;2023-02-28T03:13:52;101721.22;;;5.65;72.32
75998;BME280;64685;48.762;44.822;2023-02-28T03:24:15;101727.88;;;5.69;71.98
75998;BME280;64685;48.762;44.822;2023-02-28T03:29:30;101748.31;;;5.63;72.23
75998;BME280;64685;48.762;44.822;2023-02-28T03:34:52;101745.56;;;5.63;71.97
75998;BME280;64685;48.762;44.822;2023-02-28T03:40:02;101737.19;;;5.58;71.96
75998;BME280;64685;48.762;44.822;2023-02-28T03:45:13;101747.59;;;5.41;72.27
75998;BME280;64685;48.762;44.822;2023-02-28T03:50:34;101733.13;;;5.34;73.04
75998;BME280;64685;48.762;44.822;2023-02-28T03:55:42;101748.69;;;5.40;72.66
75998;BME280;64685;48.762;44.822;2023-02-28T04:00:49;101740.38;;;5.40;72.70
75998;BME280;64685;48.762;44.822;2023-02-28T04:05:54;101740.94;;;5.42;72.48
75998;BME280;64685;48.762;44.822;2023-02-28T04:11:03;101752.34;;;5.46;73.35
75998;BME280;64685;48.762;44.822;2023-02-28T04:16:08;101746.78;;;5.41;72.75
75998;BME280;64685;48.762;44.822;2023-02-28T04:21:22;101756.00;;;5.51;72.67
75998;BME280;64685;48.762;44.822;2023-02-28T04:31:33;101781.47;;;5.53;72.31
75998;BME280;64685;48.762;44.822;2023-02-28T04:36:36;101780.44;;;5.59;73.09
75998;BME280;64685;48.762;44.822;2023-02-28T04:41:39;101783.84;;;5.66;72.51
75998;BME280;64685;48.762;44.822;2023-02-28T04:46:41;101790.84;;;5.74;72.79
75998;BME280;64685;48.762;44.822;2023-02-28T04:51:44;101792.22;;;5.76;71.98
75998;BME280;64685;48.762;44.822;2023-02-28T04:56:47;101797.69;;;5.66;72.49
75998;BME280;64685;48.762;44.822;2023-02-28T05:01:51;101791.28;;;5.66;72.33
75998;BME280;64685;48.762;44.822;2023-02-28T05:06:54;101790.75;;;5.64;72.03
75998;BME280;64685;48.762;44.822;2023-02-28T05:11:57;101788.84;;;5.69;72.69
75998;BME280;64685;48.762;44.822;2023-02-28T05:17:00;101791.22;;;5.56;72.88
75998;BME280;64685;48.762;44.822;2023-02-28T05:22:03;101775.22;;;5.63;72.55
75998;BME280;64685;48.762;44.822;2023-02-28T05:27:05;101774.72;;;5.71;72.26
75998;BME280;64685;48.762;44.822;2023-02-28T05:32:11;101776.63;;;5.65;72.41
75998;BME280;64685;48.762;44.822;2023-02-28T05:37:15;101775.19;;;5.58;72.44
75998;BME280;64685;48.762;44.822;2023-02-28T05:42:17;101753.47;;;5.81;72.85
75998;BME280;64685;48.762;44.822;2023-02-28T05:47:20;101756.91;;;5.98;71.78
75998;BME280;64685;48.762;44.822;2023-02-28T05:52:22;101757.44;;;5.90;72.09
75998;BME280;64685;48.762;44.822;2023-02-28T05:57:29;101753.69;;;5.75;72.28
75998;BME280;64685;48.762;44.822;2023-02-28T06:02:31;101753.84;;;5.95;71.13
75998;BME280;64685;48.762;44.822;2023-02-28T06:07:34;101750.75;;;5.86;71.71
75998;BME280;64685;48.762;44.822;2023-02-28T06:12:37;101741.66;;;5.96;70.45
75998;BME280;64685;48.762;44.822;2023-02-28T06:17:41;101741.22;;;6.14;70.60
75998;BME280;64685;48.762;44.822;2023-02-28T06:22:44;101743.44;;;6.17;70.22
75998;BME280;64685;48.762;44.822;2023-02-28T06:27:47;101718.72;;;6.05;70.09
75998;BME280;64685;48.762;44.822;2023-02-28T06:32:50;101699.06;;;6.17;70.11
75998;BME280;64685;48.762;44.822;2023-02-28T06:37:54;101703.00;;;6.26;70.07
75998;BME280;64685;48.762;44.822;2023-02-28T06:42:56;101697.81;;;6.39;69.02
75998;BME280;64685;48.762;44.822;2023-02-28T06:47:59;101701.63;;;6.23;68.81
75998;BME280;64685;48.762;44.822;2023-02-28T06:53:02;101689.91;;;6.11;69.44
75998;BME280;64685;48.762;44.822;2023-02-28T06:58:04;101688.78;;;6.07;69.13
75998;BME280;64685;48.762;44.822;2023-02-28T07:03:16;101695.19;;;6.18;69.38
75998;BME280;64685;48.762;44.822;2023-02-28T07:08:20;101693.34;;;6.33;68.20
75998;BME280;64685;48.762;44.822;2023-02-28T07:13:22;101687.25;;;6.36;67.81
75998;BME280;64685;48.762;44.822;2023-02-28T07:18:25;101688.00;;;6.22;68.89
75998;BME280;64685;48.762;44.822;2023-02-28T07:23:28;101680.53;;;6.22;68.48
75998;BME280;64685;48.762;44.822;2023-02-28T07:28:31;101676.97;;;6.32;68.83
75998;BME280;64685;48.762;44.822;2023-02-28T07:33:34;101663.41;;;6.40;67.79
75998;BME280;64685;48.762;44.822;2023-02-28T07:38:36;101662.09;;;6.78;68.16
75998;BME280;64685;48.762;44.822;2023-02-28T07:43:39;101666.88;;;7.02;66.91
75998;BME280;64685;48.762;44.822;2023-02-28T07:48:42;101674.09;;;7.23;67.19
75998;BME280;64685;48.762;44.822;2023-02-28T07:53:44;101671.59;;;7.32;66.46
75998;BME280;64685;48.762;44.822;2023-02-28T07:58:47;101688.81;;;7.04;66.01
75998;BME280;64685;48.762;44.822;2023-02-28T08:03:50;101688.53;;;7.25;65.14
75998;BME280;64685;48.762;44.822;2023-02-28T08:08:55;101679.63;;;7.43;64.97
75998;BME280;64685;48.762;44.822;2023-02-28T08:13:58;101683.25;;;7.29;64.83
75998;BME280;64685;48.762;44.822;2023-02-28T08:19:01;101681.84;;;6.96;64.83
75998;BME280;64685;48.762;44.822;2023-02-28T08:24:04;101680.16;;;6.85;65.73
75998;BME280;64685;48.762;44.822;2023-02-28T08:29:07;101677.91;;;6.67;65.21
75998;BME280;64685;48.762;44.822;2023-02-28T08:34:11;101690.72;;;6.98;64.52
75998;BME280;64685;48.762;44.822;2023-02-28T08:39:14;101697.38;;;6.92;65.31
75998;BME280;64685;48.762;44.822;2023-02-28T08:44:16;101713.81;;;7.29;64.68
75998;BME280;64685;48.762;44.822;2023-02-28T08:49:19;101717.16;;;7.31;63.83
75998;BME280;64685;48.762;44.822;2023-02-28T08:54:21;101723.28;;;7.38;64.14
75998;BME280;64685;48.762;44.822;2023-02-28T08:59:25;101702.44;;;7.45;63.93
75998;BME280;64685;48.762;44.822;2023-02-28T09:04:28;101705.50;;;7.54;63.12
75998;BME280;64685;48.762;44.822;2023-02-28T09:09:33;101687.13;;;7.48;63.12
75998;BME280;64685;48.762;44.822;2023-02-28T09:14:35;101690.22;;;7.51;63.23
75998;BME280;64685;48.762;44.822;2023-02-28T09:19:37;101691.88;;;7.52;63.45
75998;BME280;64685;48.762;44.822;2023-02-28T09:24:40;101678.78;;;7.63;63.76
75998;BME280;64685;48.762;44.822;2023-02-28T09:29:43;101664.94;;;7.43;63.89
75998;BME280;64685;48.762;44.822;2023-02-28T09:34:45;101658.25;;;7.29;64.08
75998;BME280;64685;48.762;44.822;2023-02-28T09:39:48;101660.75;;;7.00;64.83
75998;BME280;64685;48.762;44.822;2023-02-28T09:44:51;101669.03;;;6.75;65.38
75998;BME280;64685;48.762;44.822;2023-02-28T09:49:54;101675.97;;;6.73;64.57
75998;BME280;64685;48.762;44.822;2023-02-28T10:00:40;101636.06;;;7.09;63.94
75998;BME280;64685;48.762;44.822;2023-02-28T10:05:56;101636.03;;;6.99;65.18
75998;BME280;64685;48.762;44.822;2023-02-28T10:11:03;101644.63;;;6.82;65.56
75998;BME280;64685;48.762;44.822;2023-02-28T10:16:17;101622.69;;;6.71;65.10
75998;BME280;64685;48.762;44.822;2023-02-28T10:21:28;101611.00;;;6.74;64.99
75998;BME280;64685;48.762;44.822;2023-02-28T10:26:32;101618.53;;;6.73;65.80
75998;BME280;64685;48.762;44.822;2023-02-28T10:31:35;101614.09;;;6.67;65.52
75998;BME280;64685;48.762;44.822;2023-02-28T10:36:38;101604.06;;;6.71;65.85
75998;BME280;64685;48.762;44.822;2023-02-28T10:41:43;101589.66;;;6.99;66.03
75998;BME280;64685;48.762;44.822;2023-02-28T10:46:45;101602.13;;;6.92;66.75
75998;BME280;64685;48.762;44.822;2023-02-28T10:51:55;101600.19;;;6.87;66.18
75998;BME280;64685;48.762;44.822;2023-02-28T10:57:22;101581.03;;;7.06;66.04
75998;BME280;64685;48.762;44.822;2023-02-28T11:02:32;101587.72;;;6.95;66.41
75998;BME280;64685;48.762;44.822;2023-02-28T11:07:40;101596.88;;;6.95;66.51
75998;BME280;64685;48.762;44.822;2023-02-28T11:12:57;101589.66;;;7.04;66.31
75998;BME280;64685;48.762;44.822;2023-02-28T11:23:40;101565.69;;;7.43;66.51
75998;BME280;64685;48.762;44.822;2023-02-28T11:28:43;101563.19;;;7.52;65.25
75998;BME280;64685;48.762;44.822;2023-02-28T11:33:47;101553.16;;;7.56;65.01
75998;BME280;64685;48.762;44.822;2023-02-28T11:38:58;101539.28;;;7.51;65.01
75998;BME280;64685;48.762;44.822;2023-02-28T12:00:45;101572.97;;;7.29;64.90
75998;BME280;64685;48.762;44.822;2023-02-28T12:06:03;101574.09;;;7.08;65.56
75998;BME280;64685;48.762;44.822;2023-02-28T12:17:01;101553.81;;;7.23;64.61
75998;BME280;64685;48.762;44.822;2023-02-28T12:27:14;101552.72;;;6.89;64.51
75998;BME280;64685;48.762;44.822;2023-02-28T12:32:31;101530.78;;;7.02;64.48
75998;BME280;64685;48.762;44.822;2023-02-28T12:37:41;101519.06;;;7.25;64.47
75998;BME280;64685;48.762;44.822;2023-02-28T12:42:54;101524.91;;;7.29;64.51
75998;BME280;64685;48.762;44.822;2023-02-28T12:48:04;101525.16;;;7.32;63.54
75998;BME280;64685;48.762;44.822;2023-02-28T12:58:32;101520.81;;;6.96;64.37
75998;BME280;64685;48.762;44.822;2023-02-28T13:09:02;101521.66;;;6.87;63.76
75998;BME280;64685;48.762;44.822;2023-02-28T13:14:15;101518.31;;;6.65;64.50
75998;BME280;64685;48.762;44.822;2023-02-28T13:19:20;101518.31;;;6.70;64.91
75998;BME280;64685;48.762;44.822;2023-02-28T13:29:41;101482.78;;;6.77;64.07
75998;BME280;64685;48.762;44.822;2023-02-28T13:39:58;101482.78;;;6.52;64.61
75998;BME280;64685;48.762;44.822;2023-02-28T13:55:43;101487.78;;;6.55;64.33
75998;BME280;64685;48.762;44.822;2023-02-28T14:06:28;101456.72;;;6.23;64.86
75998;BME280;64685;48.762;44.822;2023-02-28T14:11:35;101461.44;;;6.22;64.69
75998;BME280;64685;48.762;44.822;2023-02-28T14:16:44;101465.59;;;6.40;65.09
75998;BME280;64685;48.762;44.822;2023-02-28T14:32:59;101447.28;;;6.29;64.01
75998;BME280;64685;48.762;44.822;2023-02-28T14:38:05;101452.28;;;6.22;64.67
75998;BME280;64685;48.762;44.822;2023-02-28T14:43:21;101450.06;;;6.19;64.39
75998;BME280;64685;48.762;44.822;2023-02-28T14:48:25;101453.66;;;6.14;64.25
75998;BME280;64685;48.762;44.822;2023-02-28T14:53:30;101445.06;;;6.16;64.04
75998;BME280;64685;48.762;44.822;2023-02-28T14:58:37;101439.50;;;6.11;64.09
75998;BME280;64685;48.762;44.822;2023-02-28T15:03:39;101445.31;;;6.04;64.67
75998;BME280;64685;48.762;44.822;2023-02-28T15:08:45;101442.00;;;6.02;64.15
75998;BME280;64685;48.762;44.822;2023-02-28T15:13:54;101451.44;;;6.01;64.33
75998;BME280;64685;48.762;44.822;2023-02-28T15:19:02;101447.25;;;5.99;63.61
75998;BME280;64685;48.762;44.822;2023-02-28T15:24:15;101453.28;;;5.76;64.40
75998;BME280;64685;48.762;44.822;2023-02-28T15:29:28;101467.41;;;5.74;64.22
75998;BME280;64685;48.762;44.822;2023-02-28T15:34:38;101465.75;;;5.73;64.62
75998;BME280;64685;48.762;44.822;2023-02-28T15:39:45;101469.88;;;5.66;63.89
75998;BME280;64685;48.762;44.822;2023-02-28T15:44:48;101470.41;;;5.68;63.72
75998;BME280;64685;48.762;44.822;2023-02-28T15:50:00;101453.50;;;5.49;63.87
75998;BME280;64685;48.762;44.822;2023-02-28T16:00:18;101438.81;;;5.54;63.94
75998;BME280;64685;48.762;44.822;2023-02-28T16:05:29;101451.28;;;5.56;64.32
75998;BME280;64685;48.762;44.822;2023-02-28T16:10:34;101449.03;;;5.48;64.13
75998;BME280;64685;48.762;44.822;2023-02-28T16:15:38;101438.81;;;5.54;63.55
75998;BME280;64685;48.762;44.822;2023-02-28T16:20:44;101438.75;;;5.39;64.36
75998;BME280;64685;48.762;44.822;2023-02-28T16:25:47;101429.59;;;5.33;64.45
75998;BME280;64685;48.762;44.822;2023-02-28T16:30:53;101424.88;;;5.34;64.50
75998;BME280;64685;48.762;44.822;2023-02-28T16:35:56;101421.25;;;5.23;64.68
75998;BME280;64685;48.762;44.822;2023-02-28T16:40:59;101420.28;;;4.93;64.36
75998;BME280;64685;48.762;44.822;2023-02-28T16:46:02;101411.34;;;4.39;65.20
75998;BME280;64685;48.762;44.822;2023-02-28T16:51:10;101415.00;;;4.13;65.70
75998;BME280;64685;48.762;44.822;2023-02-28T16:56:21;101418.41;;;3.89;65.97
75998;BME280;64685;48.762;44.822;2023-02-28T17:01:24;101417.75;;;3.82;66.22
75998;BME280;64685;48.762;44.822;2023-02-28T17:06:29;101423.03;;;3.83;66.30
75998;BME280;64685;48.762;44.822;2023-02-28T17:11:33;101411.22;;;3.61;66.28
75998;BME280;64685;48.762;44.822;2023-02-28T17:16:36;101407.75;;;3.76;66.39
75998;BME280;64685;48.762;44.822;2023-02-28T17:21:44;101400.56;;;3.75;66.05
75998;BME280;64685;48.762;44.822;2023-02-28T17:26:47;101402.84;;;3.78;65.95
75998;BME280;64685;48.762;44.822;2023-02-28T17:31:49;101400.47;;;3.91;65.67
75998;BME280;64685;48.762;44.822;2023-02-28T17:36:52;101391.50;;;3.79;64.85
75998;BME280;64685;48.762;44.822;2023-02-28T17:41:55;101383.19;;;3.74;64.94
75998;BME280;64685;48.762;44.822;2023-02-28T17:46:58;101374.06;;;3.74;64.52
75998;BME280;64685;48.762;44.822;2023-02-28T17:52:01;101370.69;;;3.67;64.31
75998;BME280;64685;48.762;44.822;2023-02-28T17:57:03;101390.84;;;3.67;63.62
75998;BME280;64685;48.762;44.822;2023-02-28T18:02:06;101382.09;;;3.75;63.62
75998;BME280;64685;48.762;44.822;2023-02-28T18:07:11;101378.22;;;3.76;63.43
75998;BME280;64685;48.762;44.822;2023-02-28T18:12:14;101365.25;;;3.77;63.00
75998;BME280;64685;48.762;44.822;2023-02-28T18:17:16;101367.06;;;3.66;63.06
75998;BME280;64685;48.762;44.822;2023-02-28T18:22:18;101359.91;;;3.65;62.81
75998;BME280;64685;48.762;44.822;2023-02-28T18:27:21;101358.75;;;3.61;62.94
75998;BME280;64685;48.762;44.822;2023-02-28T18:32:23;101374.81;;;3.64;62.65
75998;BME280;64685;48.762;44.822;2023-02-28T18:37:26;101353.72;;;3.53;62.38
75998;BME280;64685;48.762;44.822;2023-02-28T18:42:28;101352.13;;;3.62;62.55
75998;BME280;64685;48.762;44.822;2023-02-28T18:47:33;101358.88;;;3.45;62.23
75998;BME280;64685;48.762;44.822;2023-02-28T18:52:38;101354.22;;;3.24;62.11
75998;BME280;64685;48.762;44.822;2023-02-28T18:57:40;101357.09;;;3.07;61.90
75998;BME280;64685;48.762;44.822;2023-02-28T19:02:43;101338.34;;;3.09;61.67
75998;BME280;64685;48.762;44.822;2023-02-28T19:07:45;101334.69;;;3.04;61.48
75998;BME280;64685;48.762;44.822;2023-02-28T19:12:47;101332.75;;;3.04;60.77
75998;BME280;64685;48.762;44.822;2023-02-28T19:17:50;101332.25;;;3.07;61.46
75998;BME280;64685;48.762;44.822;2023-02-28T19:22:52;101328.03;;;3.00;61.20
75998;BME280;64685;48.762;44.822;2023-02-28T19:27:55;101306.69;;;2.90;61.34
75998;BME280;64685;48.762;44.822;2023-02-28T19:32:58;101321.03;;;2.92;61.32
75998;BME280;64685;48.762;44.822;2023-02-28T19:38:00;101303.00;;;2.85;61.25
75998;BME280;64685;48.762;44.822;2023-02-28T19:43:02;101302.34;;;2.99;61.17
75998;BME280;64685;48.762;44.822;2023-02-28T19:48:06;101296.25;;;2.97;60.87
75998;BME280;64685;48.762;44.822;2023-02-28T19:53:10;101295.09;;;2.93;61.01
75998;BME280;64685;48.762;44.822;2023-02-28T19:58:13;101299.09;;;3.02;60.74
75998;BME280;64685;48.762;44.822;2023-02-28T20:03:15;101291.06;;;3.01;61.15
75998;BME280;64685;48.762;44.822;2023-02-28T20:08:19;101288.50;;;2.94;61.16
75998;BME280;64685;48.762;44.822;2023-02-28T20:13:22;101295.78;;;3.05;61.59
75998;BME280;64685;48.762;44.822;2023-02-28T20:18:29;101286.69;;;3.05;61.26
75998;BME280;64685;48.762;44.822;2023-02-28T20:23:31;101281.06;;;3.21;61.23
75998;BME280;64685;48.762;44.822;2023-02-28T20:28:34;101279.44;;;3.25;60.87
75998;BME280;64685;48.762;44.822;2023-02-28T20:33:36;101275.72;;;3.10;61.61
75998;BME280;64685;48.762;44.822;2023-02-28T20:38:39;101276.53;;;3.10;61.44
75998;BME280;64685;48.762;44.822;2023-02-28T20:43:43;101281.84;;;3.17;61.26
75998;BME280;64685;48.762;44.822;2023-02-28T20:48:45;101277.63;;;3.09;61.20
75998;BME280;64685;48.762;44.822;2023-02-28T20:53:48;101272.72;;;2.90;60.80
75998;BME280;64685;48.762;44.822;2023-02-28T20:58:52;101279.03;;;2.64;60.72
75998;BME280;64685;48.762;44.822;2023-02-28T21:03:59;101273.72;;;2.36;60.97
75998;BME280;64685;48.762;44.822;2023-02-28T21:09:07;101279.22;;;2.14;60.90
75998;BME280;64685;48.762;44.822;2023-02-28T21:14:13;101254.03;;;2.06;60.81
75998;BME280;64685;48.762;44.822;2023-02-28T21:19:16;101262.59;;;1.88;60.81
75998;BME280;64685;48.762;44.822;2023-02-28T21:24:19;101248.38;;;1.58;60.60
75998;BME280;64685;48.762;44.822;2023-02-28T21:29:22;101238.19;;;1.42;61.32
75998;BME280;64685;48.762;44.822;2023-02-28T21:34:24;101263.44;;;1.22;61.11
75998;BME280;64685;48.762;44.822;2023-02-28T21:39:29;101269.66;;;1.18;61.39
75998;BME280;64685;48.762;44.822;2023-02-28T21:44:32;101264.34;;;1.11;61.78
75998;BME280;64685;48.762;44.822;2023-02-28T21:49:35;101271.06;;;1.04;62.23
75998;BME280;64685;48.762;44.822;2023-02-28T21:54:39;101268.88;;;0.89;61.92
75998;BME280;64685;48.762;44.822;2023-02-28T21:59:42;101258.97;;;0.88;62.61
75998;BME280;64685;48.762;44.822;2023-02-28T22:04:44;101248.56;;;0.90;62.90
75998;BME280;64685;48.762;44.822;2023-02-28T22:09:47;101244.97;;;0.90;62.80
75998;BME280;64685;48.762;44.822;2023-02-28T22:14:50;101269.63;;;0.85;63.15
75998;BME280;64685;48.762;44.822;2023-02-28T22:19:52;101268.53;;;0.86;63.16
75998;BME280;64685;48.762;44.822;2023-02-28T22:24:55;101270.34;;;0.80;63.51
75998;BME280;64685;48.762;44.822;2023-02-28T22:29:58;101255.63;;;0.86;63.74
75998;BME280;64685;48.762;44.822;2023-02-28T22:35:00;101239.28;;;0.80;63.74
75998;BME280;64685;48.762;44.822;2023-02-28T22:40:04;101229.38;;;0.79;64.06
75998;BME280;64685;48.762;44.822;2023-02-28T22:45:07;101246.59;;;0.74;64.17
75998;BME280;64685;48.762;44.822;2023-02-28T22:50:10;101247.44;;;0.75;64.09
75998;BME280;64685;48.762;44.822;2023-02-28T22:55:13;101235.94;;;0.78;64.48
75998;BME280;64685;48.762;44.822;2023-02-28T23:00:16;101248.44;;;0.69;64.32
75998;BME280;64685;48.762;44.822;2023-02-28T23:05:30;101261.66;;;0.72;64.42
75998;BME280;64685;48.762;44.822;2023-02-28T23:10:33;101254.13;;;0.79;64.27
75998;BME280;64685;48.762;44.822;2023-02-28T23:15:38;101206.56;;;0.78;64.03
75998;BME280;64685;48.762;44.822;2023-02-28T23:20:41;101216.97;;;0.76;64.71
75998;BME280;64685;48.762;44.822;2023-02-28T23:25:44;101214.38;;;0.70;64.47
75998;BME280;64685;48.762;44.822;2023-02-28T23:30:46;101205.34;;;0.58;64.57
75998;BME280;64685;48.762;44.822;2023-02-28T23:35:49;101201.66;;;0.52;65.06
75998;BME280;64685;48.762;44.822;2023-02-28T23:40:51;101203.06;;;0.55;64.96
75998;BME280;64685;48.762;44.822;2023-02-28T23:45:55;101193.06;;;0.49;65.04
75998;BME280;64685;48.762;44.822;2023-02-28T23:51:02;101216.28;;;0.41;65.12
75998;BME280;64685;48.762;44.822;2023-02-28T23:56:11;101211.38;;;0.43;65.51
